sensor_id;sensor_type;location;lat;lon;timestamp;P1;durP1;ratioP1;P2;durP2;ratioP2
70588;SDS011;58152;49.202;18.744;2023-06-14T00:00:11;2.10;;;1.75;;
70588;SDS011;58152;49.202;18.744;2023-06-14T00:02:38;2.08;;;1.58;;
70588;SDS011;58152;49.202;18.744;2023-06-14T00:05:04;2.80;;;1.50;;
70588;SDS011;58152;49.202;18.744;2023-06-14T00:07:37;3.70;;;1.75;;
70588;SDS011;58152;49.202;18.744;2023-06-14T00:10:07;3.78;;;2.10;;
70588;SDS011;58152;49.202;18.744;2023-06-14T00:12:34;2.60;;;2.22;;
70588;SDS011;58152;49.202;18.744;2023-06-14T00:15:00;2.70;;;2.28;;
70588;SDS011;58152;49.202;18.744;2023-06-14T00:17:28;2.33;;;2.13;;
70588;SDS011;58152;49.202;18.744;2023-06-14T00:19:57;2.03;;;1.52;;
70588;SDS011;58152;49.202;18.744;2023-06-14T00:22:23;2.50;;;1.88;;
70588;SDS011;58152;49.202;18.744;2023-06-14T00:24:50;2.58;;;1.83;;
70588;SDS011;58152;49.202;18.744;2023-06-14T00:27:16;2.28;;;2.00;;
70588;SDS011;58152;49.202;18.744;2023-06-14T00:29:41;2.28;;;1.90;;
70588;SDS011;58152;49.202;18.744;2023-06-14T00:32:07;2.35;;;1.83;;
70588;SDS011;58152;49.202;18.744;2023-06-14T00:34:33;3.63;;;2.25;;
70588;SDS011;58152;49.202;18.744;2023-06-14T00:37:00;2.47;;;2.13;;
70588;SDS011;58152;49.202;18.744;2023-06-14T00:39:26;2.25;;;2.05;;
70588;SDS011;58152;49.202;18.744;2023-06-14T00:41:51;2.53;;;1.80;;
70588;SDS011;58152;49.202;18.744;2023-06-14T00:44:17;2.05;;;1.40;;
70588;SDS011;58152;49.202;18.744;2023-06-14T00:46:43;3.17;;;2.13;;
70588;SDS011;58152;49.202;18.744;2023-06-14T00:49:13;2.13;;;1.92;;
70588;SDS011;58152;49.202;18.744;2023-06-14T00:51:40;1.67;;;1.45;;
70588;SDS011;58152;49.202;18.744;2023-06-14T00:54:06;2.50;;;1.77;;
70588;SDS011;58152;49.202;18.744;2023-06-14T00:56:32;3.67;;;2.25;;
70588;SDS011;58152;49.202;18.744;2023-06-14T00:58:57;3.45;;;2.10;;
70588;SDS011;58152;49.202;18.744;2023-06-14T01:01:23;2.45;;;1.85;;
70588;SDS011;58152;49.202;18.744;2023-06-14T01:03:49;2.38;;;2.03;;
70588;SDS011;58152;49.202;18.744;2023-06-14T01:09:24;1.77;;;1.42;;
70588;SDS011;58152;49.202;18.744;2023-06-14T01:14:21;4.85;;;2.13;;
70588;SDS011;58152;49.202;18.744;2023-06-14T01:16:47;2.83;;;2.00;;
70588;SDS011;58152;49.202;18.744;2023-06-14T01:19:18;2.22;;;1.60;;
70588;SDS011;58152;49.202;18.744;2023-06-14T01:21:47;2.72;;;1.50;;
70588;SDS011;58152;49.202;18.744;2023-06-14T01:24:16;2.35;;;1.70;;
70588;SDS011;58152;49.202;18.744;2023-06-14T01:26:44;2.13;;;1.70;;
70588;SDS011;58152;49.202;18.744;2023-06-14T01:29:11;2.03;;;1.83;;
70588;SDS011;58152;49.202;18.744;2023-06-14T01:31:42;3.10;;;2.05;;
70588;SDS011;58152;49.202;18.744;2023-06-14T01:34:08;1.63;;;1.52;;
70588;SDS011;58152;49.202;18.744;2023-06-14T01:36:35;2.78;;;1.90;;
70588;SDS011;58152;49.202;18.744;2023-06-14T01:39:09;1.98;;;1.65;;
70588;SDS011;58152;49.202;18.744;2023-06-14T01:41:37;3.08;;;1.83;;
70588;SDS011;58152;49.202;18.744;2023-06-14T01:44:03;1.73;;;1.40;;
70588;SDS011;58152;49.202;18.744;2023-06-14T01:46:30;2.63;;;1.42;;
70588;SDS011;58152;49.202;18.744;2023-06-14T01:48:55;2.22;;;2.03;;
70588;SDS011;58152;49.202;18.744;2023-06-14T01:51:21;5.78;;;1.77;;
70588;SDS011;58152;49.202;18.744;2023-06-14T01:53:47;2.53;;;1.85;;
70588;SDS011;58152;49.202;18.744;2023-06-14T01:56:13;2.03;;;1.83;;
70588;SDS011;58152;49.202;18.744;2023-06-14T01:58:39;2.38;;;2.00;;
70588;SDS011;58152;49.202;18.744;2023-06-14T02:01:05;2.75;;;2.10;;
70588;SDS011;58152;49.202;18.744;2023-06-14T02:03:31;2.67;;;2.15;;
70588;SDS011;58152;49.202;18.744;2023-06-14T02:05:57;3.25;;;2.95;;
70588;SDS011;58152;49.202;18.744;2023-06-14T02:08:23;2.88;;;2.67;;
70588;SDS011;58152;49.202;18.744;2023-06-14T02:10:48;4.47;;;3.47;;
70588;SDS011;58152;49.202;18.744;2023-06-14T02:13:14;3.55;;;2.72;;
70588;SDS011;58152;49.202;18.744;2023-06-14T02:15:39;2.67;;;2.33;;
70588;SDS011;58152;49.202;18.744;2023-06-14T02:18:05;3.10;;;2.80;;
70588;SDS011;58152;49.202;18.744;2023-06-14T02:20:31;3.05;;;2.10;;
70588;SDS011;58152;49.202;18.744;2023-06-14T02:22:56;3.75;;;2.35;;
70588;SDS011;58152;49.202;18.744;2023-06-14T02:25:22;4.05;;;2.65;;
70588;SDS011;58152;49.202;18.744;2023-06-14T02:27:48;2.83;;;2.53;;
70588;SDS011;58152;49.202;18.744;2023-06-14T02:30:13;3.75;;;2.08;;
70588;SDS011;58152;49.202;18.744;2023-06-14T02:32:40;3.47;;;2.38;;
70588;SDS011;58152;49.202;18.744;2023-06-14T02:35:08;3.05;;;2.47;;
70588;SDS011;58152;49.202;18.744;2023-06-14T02:37:33;3.00;;;2.67;;
70588;SDS011;58152;49.202;18.744;2023-06-14T02:40:00;2.85;;;2.55;;
70588;SDS011;58152;49.202;18.744;2023-06-14T02:42:25;2.50;;;2.30;;
70588;SDS011;58152;49.202;18.744;2023-06-14T02:44:51;2.50;;;2.30;;
70588;SDS011;58152;49.202;18.744;2023-06-14T02:47:19;3.25;;;2.45;;
70588;SDS011;58152;49.202;18.744;2023-06-14T02:49:45;1.98;;;1.83;;
70588;SDS011;58152;49.202;18.744;2023-06-14T02:52:13;3.13;;;2.22;;
70588;SDS011;58152;49.202;18.744;2023-06-14T02:54:39;2.85;;;2.55;;
70588;SDS011;58152;49.202;18.744;2023-06-14T02:57:05;2.72;;;2.40;;
70588;SDS011;58152;49.202;18.744;2023-06-14T02:59:32;2.33;;;1.95;;
70588;SDS011;58152;49.202;18.744;2023-06-14T03:01:58;3.42;;;2.40;;
70588;SDS011;58152;49.202;18.744;2023-06-14T03:04:23;2.47;;;2.10;;
70588;SDS011;58152;49.202;18.744;2023-06-14T03:06:50;2.60;;;2.20;;
70588;SDS011;58152;49.202;18.744;2023-06-14T03:09:16;3.45;;;2.63;;
70588;SDS011;58152;49.202;18.744;2023-06-14T03:11:42;2.80;;;2.10;;
70588;SDS011;58152;49.202;18.744;2023-06-14T03:14:07;3.67;;;2.55;;
70588;SDS011;58152;49.202;18.744;2023-06-14T03:16:33;3.55;;;2.47;;
70588;SDS011;58152;49.202;18.744;2023-06-14T03:18:59;2.50;;;2.20;;
70588;SDS011;58152;49.202;18.744;2023-06-14T03:21:27;3.22;;;2.30;;
70588;SDS011;58152;49.202;18.744;2023-06-14T03:23:53;3.78;;;2.40;;
70588;SDS011;58152;49.202;18.744;2023-06-14T03:26:19;2.35;;;2.15;;
70588;SDS011;58152;49.202;18.744;2023-06-14T03:28:48;2.67;;;2.47;;
70588;SDS011;58152;49.202;18.744;2023-06-14T03:31:15;176.10;;;138.35;;
70588;SDS011;58152;49.202;18.744;2023-06-14T03:33:41;169.75;;;125.20;;
70588;SDS011;58152;49.202;18.744;2023-06-14T03:36:06;123.85;;;89.85;;
70588;SDS011;58152;49.202;18.744;2023-06-14T03:38:32;52.40;;;36.78;;
70588;SDS011;58152;49.202;18.744;2023-06-14T03:40:57;20.50;;;14.82;;
70588;SDS011;58152;49.202;18.744;2023-06-14T03:43:23;10.07;;;7.03;;
70588;SDS011;58152;49.202;18.744;2023-06-14T03:45:48;4.00;;;3.50;;
70588;SDS011;58152;49.202;18.744;2023-06-14T03:48:14;4.50;;;2.88;;
70588;SDS011;58152;49.202;18.744;2023-06-14T03:50:39;4.18;;;2.65;;
70588;SDS011;58152;49.202;18.744;2023-06-14T03:53:05;3.10;;;2.80;;
70588;SDS011;58152;49.202;18.744;2023-06-14T03:55:31;2.80;;;2.60;;
70588;SDS011;58152;49.202;18.744;2023-06-14T03:57:58;2.65;;;2.45;;
70588;SDS011;58152;49.202;18.744;2023-06-14T04:00:23;3.70;;;2.22;;
70588;SDS011;58152;49.202;18.744;2023-06-14T04:02:49;3.35;;;2.83;;
70588;SDS011;58152;49.202;18.744;2023-06-14T04:05:14;2.90;;;2.63;;
70588;SDS011;58152;49.202;18.744;2023-06-14T04:07:41;3.53;;;2.85;;
70588;SDS011;58152;49.202;18.744;2023-06-14T04:10:11;2.72;;;2.53;;
70588;SDS011;58152;49.202;18.744;2023-06-14T04:12:38;2.80;;;2.55;;
70588;SDS011;58152;49.202;18.744;2023-06-14T04:15:03;3.20;;;2.90;;
70588;SDS011;58152;49.202;18.744;2023-06-14T04:17:31;3.42;;;2.63;;
70588;SDS011;58152;49.202;18.744;2023-06-14T04:19:58;2.67;;;2.47;;
70588;SDS011;58152;49.202;18.744;2023-06-14T04:22:25;3.17;;;2.65;;
70588;SDS011;58152;49.202;18.744;2023-06-14T04:24:53;5.03;;;2.53;;
70588;SDS011;58152;49.202;18.744;2023-06-14T04:27:21;3.38;;;2.83;;
70588;SDS011;58152;49.202;18.744;2023-06-14T04:29:54;4.07;;;2.60;;
70588;SDS011;58152;49.202;18.744;2023-06-14T04:32:24;3.28;;;2.97;;
70588;SDS011;58152;49.202;18.744;2023-06-14T04:34:52;4.18;;;2.95;;
70588;SDS011;58152;49.202;18.744;2023-06-14T04:37:19;3.03;;;2.75;;
70588;SDS011;58152;49.202;18.744;2023-06-14T04:39:46;3.88;;;2.95;;
70588;SDS011;58152;49.202;18.744;2023-06-14T04:42:12;4.00;;;3.30;;
70588;SDS011;58152;49.202;18.744;2023-06-14T04:44:40;3.15;;;2.70;;
70588;SDS011;58152;49.202;18.744;2023-06-14T04:47:06;4.00;;;3.55;;
70588;SDS011;58152;49.202;18.744;2023-06-14T04:49:32;4.00;;;3.47;;
70588;SDS011;58152;49.202;18.744;2023-06-14T04:51:59;4.80;;;3.85;;
70588;SDS011;58152;49.202;18.744;2023-06-14T04:54:26;4.32;;;3.92;;
70588;SDS011;58152;49.202;18.744;2023-06-14T04:56:52;8.07;;;5.68;;
70588;SDS011;58152;49.202;18.744;2023-06-14T04:59:20;5.97;;;5.15;;
70588;SDS011;58152;49.202;18.744;2023-06-14T05:01:48;5.65;;;4.97;;
70588;SDS011;58152;49.202;18.744;2023-06-14T05:04:17;6.18;;;5.57;;
70588;SDS011;58152;49.202;18.744;2023-06-14T05:06:46;5.28;;;4.38;;
70588;SDS011;58152;49.202;18.744;2023-06-14T05:09:14;7.18;;;5.30;;
70588;SDS011;58152;49.202;18.744;2023-06-14T05:11:41;6.97;;;5.68;;
70588;SDS011;58152;49.202;18.744;2023-06-14T05:14:09;5.90;;;5.20;;
70588;SDS011;58152;49.202;18.744;2023-06-14T05:16:36;6.40;;;5.78;;
70588;SDS011;58152;49.202;18.744;2023-06-14T05:19:02;6.15;;;5.55;;
70588;SDS011;58152;49.202;18.744;2023-06-14T05:21:29;6.82;;;4.97;;
70588;SDS011;58152;49.202;18.744;2023-06-14T05:23:55;5.15;;;4.65;;
70588;SDS011;58152;49.202;18.744;2023-06-14T05:26:21;6.28;;;4.55;;
70588;SDS011;58152;49.202;18.744;2023-06-14T05:28:48;5.00;;;4.05;;
70588;SDS011;58152;49.202;18.744;2023-06-14T05:31:15;6.38;;;4.28;;
70588;SDS011;58152;49.202;18.744;2023-06-14T05:33:40;4.43;;;3.85;;
70588;SDS011;58152;49.202;18.744;2023-06-14T05:36:06;4.20;;;3.65;;
70588;SDS011;58152;49.202;18.744;2023-06-14T05:38:31;3.22;;;2.92;;
70588;SDS011;58152;49.202;18.744;2023-06-14T05:40:57;3.30;;;3.00;;
70588;SDS011;58152;49.202;18.744;2023-06-14T05:43:22;3.60;;;2.95;;
70588;SDS011;58152;49.202;18.744;2023-06-14T05:45:47;3.78;;;2.92;;
70588;SDS011;58152;49.202;18.744;2023-06-14T05:48:13;3.60;;;2.97;;
70588;SDS011;58152;49.202;18.744;2023-06-14T05:50:38;4.38;;;3.13;;
70588;SDS011;58152;49.202;18.744;2023-06-14T05:53:04;4.00;;;3.25;;
70588;SDS011;58152;49.202;18.744;2023-06-14T05:55:29;3.17;;;2.63;;
70588;SDS011;58152;49.202;18.744;2023-06-14T05:57:55;3.20;;;2.90;;
70588;SDS011;58152;49.202;18.744;2023-06-14T06:00:20;3.63;;;3.20;;
70588;SDS011;58152;49.202;18.744;2023-06-14T06:02:46;3.58;;;2.47;;
70588;SDS011;58152;49.202;18.744;2023-06-14T06:05:12;3.45;;;2.58;;
70588;SDS011;58152;49.202;18.744;2023-06-14T06:07:38;4.65;;;2.88;;
70588;SDS011;58152;49.202;18.744;2023-06-14T06:10:09;2.83;;;2.47;;
70588;SDS011;58152;49.202;18.744;2023-06-14T06:12:35;3.45;;;2.85;;
70588;SDS011;58152;49.202;18.744;2023-06-14T06:15:00;3.10;;;2.47;;
70588;SDS011;58152;49.202;18.744;2023-06-14T06:17:26;2.92;;;2.63;;
70588;SDS011;58152;49.202;18.744;2023-06-14T06:19:51;4.53;;;3.00;;
70588;SDS011;58152;49.202;18.744;2023-06-14T06:22:17;4.28;;;2.78;;
70588;SDS011;58152;49.202;18.744;2023-06-14T06:24:42;5.07;;;3.20;;
70588;SDS011;58152;49.202;18.744;2023-06-14T06:27:08;4.03;;;3.17;;
70588;SDS011;58152;49.202;18.744;2023-06-14T06:29:34;3.60;;;3.30;;
70588;SDS011;58152;49.202;18.744;2023-06-14T06:32:00;3.40;;;2.70;;
70588;SDS011;58152;49.202;18.744;2023-06-14T06:34:25;3.50;;;3.03;;
70588;SDS011;58152;49.202;18.744;2023-06-14T06:36:51;3.65;;;2.80;;
70588;SDS011;58152;49.202;18.744;2023-06-14T06:39:16;2.95;;;2.70;;
70588;SDS011;58152;49.202;18.744;2023-06-14T06:41:42;3.70;;;2.47;;
70588;SDS011;58152;49.202;18.744;2023-06-14T06:44:07;3.75;;;2.83;;
70588;SDS011;58152;49.202;18.744;2023-06-14T06:46:34;2.97;;;2.47;;
70588;SDS011;58152;49.202;18.744;2023-06-14T06:49:00;3.40;;;2.65;;
70588;SDS011;58152;49.202;18.744;2023-06-14T06:51:25;3.95;;;2.63;;
70588;SDS011;58152;49.202;18.744;2023-06-14T06:53:54;3.67;;;2.95;;
70588;SDS011;58152;49.202;18.744;2023-06-14T06:56:20;3.65;;;2.92;;
70588;SDS011;58152;49.202;18.744;2023-06-14T06:58:48;2.95;;;2.67;;
70588;SDS011;58152;49.202;18.744;2023-06-14T07:01:14;3.72;;;2.78;;
70588;SDS011;58152;49.202;18.744;2023-06-14T07:03:39;4.03;;;3.08;;
70588;SDS011;58152;49.202;18.744;2023-06-14T07:06:04;3.70;;;2.33;;
70588;SDS011;58152;49.202;18.744;2023-06-14T07:08:30;7.13;;;3.85;;
70588;SDS011;58152;49.202;18.744;2023-06-14T07:10:55;5.03;;;4.03;;
70588;SDS011;58152;49.202;18.744;2023-06-14T07:13:21;5.13;;;3.97;;
70588;SDS011;58152;49.202;18.744;2023-06-14T07:15:46;3.90;;;3.50;;
70588;SDS011;58152;49.202;18.744;2023-06-14T07:18:12;3.70;;;3.33;;
70588;SDS011;58152;49.202;18.744;2023-06-14T07:20:38;3.13;;;2.80;;
70588;SDS011;58152;49.202;18.744;2023-06-14T07:23:03;10.18;;;3.17;;
70588;SDS011;58152;49.202;18.744;2023-06-14T07:25:30;8.00;;;3.72;;
70588;SDS011;58152;49.202;18.744;2023-06-14T07:27:55;12.52;;;3.63;;
70588;SDS011;58152;49.202;18.744;2023-06-14T07:30:21;12.30;;;3.92;;
70588;SDS011;58152;49.202;18.744;2023-06-14T07:32:51;7.13;;;3.05;;
70588;SDS011;58152;49.202;18.744;2023-06-14T07:35:17;3.78;;;2.28;;
70588;SDS011;58152;49.202;18.744;2023-06-14T07:37:43;2.70;;;2.47;;
70588;SDS011;58152;49.202;18.744;2023-06-14T07:40:09;4.55;;;1.98;;
70588;SDS011;58152;49.202;18.744;2023-06-14T07:42:35;3.53;;;2.20;;
70588;SDS011;58152;49.202;18.744;2023-06-14T07:45:01;3.03;;;1.73;;
70588;SDS011;58152;49.202;18.744;2023-06-14T07:47:29;2.05;;;1.52;;
70588;SDS011;58152;49.202;18.744;2023-06-14T07:49:55;2.50;;;1.88;;
70588;SDS011;58152;49.202;18.744;2023-06-14T07:52:20;3.03;;;2.05;;
70588;SDS011;58152;49.202;18.744;2023-06-14T07:54:46;3.00;;;1.77;;
70588;SDS011;58152;49.202;18.744;2023-06-14T07:57:12;2.03;;;1.60;;
70588;SDS011;58152;49.202;18.744;2023-06-14T07:59:37;1.77;;;1.67;;
70588;SDS011;58152;49.202;18.744;2023-06-14T08:02:03;2.20;;;1.73;;
70588;SDS011;58152;49.202;18.744;2023-06-14T08:04:29;2.65;;;1.88;;
70588;SDS011;58152;49.202;18.744;2023-06-14T08:06:56;2.10;;;1.60;;
70588;SDS011;58152;49.202;18.744;2023-06-14T08:09:21;1.98;;;1.60;;
70588;SDS011;58152;49.202;18.744;2023-06-14T08:11:47;2.58;;;2.35;;
70588;SDS011;58152;49.202;18.744;2023-06-14T08:14:12;3.17;;;2.88;;
70588;SDS011;58152;49.202;18.744;2023-06-14T08:16:38;2.70;;;2.13;;
70588;SDS011;58152;49.202;18.744;2023-06-14T08:19:03;1.60;;;1.40;;
70588;SDS011;58152;49.202;18.744;2023-06-14T08:21:29;2.22;;;1.35;;
70588;SDS011;58152;49.202;18.744;2023-06-14T08:23:54;3.20;;;1.35;;
70588;SDS011;58152;49.202;18.744;2023-06-14T08:26:20;1.30;;;1.20;;
70588;SDS011;58152;49.202;18.744;2023-06-14T08:28:46;2.35;;;1.65;;
70588;SDS011;58152;49.202;18.744;2023-06-14T08:31:12;1.52;;;1.40;;
70588;SDS011;58152;49.202;18.744;2023-06-14T08:33:37;2.28;;;1.60;;
70588;SDS011;58152;49.202;18.744;2023-06-14T08:36:04;1.45;;;1.17;;
70588;SDS011;58152;49.202;18.744;2023-06-14T08:38:30;1.40;;;1.30;;
70588;SDS011;58152;49.202;18.744;2023-06-14T08:40:58;2.22;;;1.70;;
70588;SDS011;58152;49.202;18.744;2023-06-14T08:43:26;1.90;;;1.70;;
70588;SDS011;58152;49.202;18.744;2023-06-14T08:45:53;5.45;;;1.75;;
70588;SDS011;58152;49.202;18.744;2023-06-14T08:48:25;2.10;;;1.63;;
70588;SDS011;58152;49.202;18.744;2023-06-14T08:50:51;1.98;;;1.80;;
70588;SDS011;58152;49.202;18.744;2023-06-14T08:53:27;2.92;;;1.52;;
70588;SDS011;58152;49.202;18.744;2023-06-14T08:55:53;1.60;;;1.33;;
70588;SDS011;58152;49.202;18.744;2023-06-14T08:58:20;2.72;;;1.70;;
70588;SDS011;58152;49.202;18.744;2023-06-14T09:00:49;2.70;;;2.03;;
70588;SDS011;58152;49.202;18.744;2023-06-14T09:03:17;2.13;;;1.58;;
70588;SDS011;58152;49.202;18.744;2023-06-14T09:05:45;2.83;;;1.40;;
70588;SDS011;58152;49.202;18.744;2023-06-14T09:08:11;2.53;;;1.25;;
70588;SDS011;58152;49.202;18.744;2023-06-14T09:10:37;1.92;;;1.40;;
70588;SDS011;58152;49.202;18.744;2023-06-14T09:13:05;3.33;;;1.42;;
70588;SDS011;58152;49.202;18.744;2023-06-14T09:15:31;1.95;;;1.25;;
70588;SDS011;58152;49.202;18.744;2023-06-14T09:17:57;1.65;;;1.20;;
70588;SDS011;58152;49.202;18.744;2023-06-14T09:20:23;1.48;;;1.10;;
70588;SDS011;58152;49.202;18.744;2023-06-14T09:22:49;2.60;;;1.55;;
70588;SDS011;58152;49.202;18.744;2023-06-14T09:25:15;2.55;;;1.45;;
70588;SDS011;58152;49.202;18.744;2023-06-14T09:27:45;1.65;;;1.13;;
70588;SDS011;58152;49.202;18.744;2023-06-14T09:30:12;1.70;;;1.60;;
70588;SDS011;58152;49.202;18.744;2023-06-14T09:32:38;1.25;;;1.15;;
70588;SDS011;58152;49.202;18.744;2023-06-14T09:35:07;1.58;;;1.48;;
70588;SDS011;58152;49.202;18.744;2023-06-14T09:37:33;2.38;;;1.50;;
70588;SDS011;58152;49.202;18.744;2023-06-14T09:40:00;2.88;;;1.38;;
70588;SDS011;58152;49.202;18.744;2023-06-14T09:42:25;1.85;;;1.67;;
70588;SDS011;58152;49.202;18.744;2023-06-14T09:44:52;1.88;;;1.50;;
70588;SDS011;58152;49.202;18.744;2023-06-14T09:47:20;4.78;;;3.58;;
70588;SDS011;58152;49.202;18.744;2023-06-14T09:49:46;4.18;;;3.22;;
70588;SDS011;58152;49.202;18.744;2023-06-14T09:52:19;2.20;;;1.73;;
70588;SDS011;58152;49.202;18.744;2023-06-14T09:54:46;2.22;;;1.63;;
70588;SDS011;58152;49.202;18.744;2023-06-14T09:57:13;3.05;;;1.70;;
70588;SDS011;58152;49.202;18.744;2023-06-14T09:59:45;1.90;;;1.45;;
70588;SDS011;58152;49.202;18.744;2023-06-14T10:02:21;1.95;;;1.50;;
70588;SDS011;58152;49.202;18.744;2023-06-14T10:07:41;3.10;;;2.05;;
70588;SDS011;58152;49.202;18.744;2023-06-14T10:10:09;7.82;;;1.60;;
70588;SDS011;58152;49.202;18.744;2023-06-14T10:12:35;2.35;;;1.65;;
70588;SDS011;58152;49.202;18.744;2023-06-14T10:15:01;2.65;;;1.55;;
70588;SDS011;58152;49.202;18.744;2023-06-14T10:23:00;1.90;;;1.52;;
70588;SDS011;58152;49.202;18.744;2023-06-14T10:31:01;3.92;;;3.13;;
70588;SDS011;58152;49.202;18.744;2023-06-14T10:33:29;2.80;;;2.05;;
70588;SDS011;58152;49.202;18.744;2023-06-14T10:36:42;3.15;;;1.95;;
70588;SDS011;58152;49.202;18.744;2023-06-14T10:41:28;2.95;;;1.98;;
70588;SDS011;58152;49.202;18.744;2023-06-14T10:46:38;1.90;;;1.38;;
70588;SDS011;58152;49.202;18.744;2023-06-14T10:49:20;1.60;;;1.50;;
70588;SDS011;58152;49.202;18.744;2023-06-14T10:52:02;2.00;;;1.65;;
70588;SDS011;58152;49.202;18.744;2023-06-14T10:54:28;2.10;;;1.52;;
70588;SDS011;58152;49.202;18.744;2023-06-14T10:56:53;2.65;;;1.92;;
70588;SDS011;58152;49.202;18.744;2023-06-14T10:59:20;2.35;;;1.55;;
70588;SDS011;58152;49.202;18.744;2023-06-14T11:04:51;1.55;;;1.40;;
70588;SDS011;58152;49.202;18.744;2023-06-14T11:12:35;3.30;;;1.90;;
70588;SDS011;58152;49.202;18.744;2023-06-14T11:15:05;3.25;;;1.40;;
70588;SDS011;58152;49.202;18.744;2023-06-14T11:17:31;2.75;;;1.90;;
70588;SDS011;58152;49.202;18.744;2023-06-14T11:20:10;4.38;;;1.70;;
70588;SDS011;58152;49.202;18.744;2023-06-14T11:22:43;1.80;;;1.65;;
70588;SDS011;58152;49.202;18.744;2023-06-14T11:25:10;3.65;;;1.80;;
70588;SDS011;58152;49.202;18.744;2023-06-14T11:27:36;3.67;;;1.95;;
70588;SDS011;58152;49.202;18.744;2023-06-14T11:30:02;1.88;;;1.65;;
70588;SDS011;58152;49.202;18.744;2023-06-14T11:32:31;2.88;;;2.10;;
70588;SDS011;58152;49.202;18.744;2023-06-14T11:34:57;2.53;;;1.95;;
70588;SDS011;58152;49.202;18.744;2023-06-14T11:37:23;2.10;;;1.90;;
70588;SDS011;58152;49.202;18.744;2023-06-14T11:39:57;2.85;;;2.25;;
70588;SDS011;58152;49.202;18.744;2023-06-14T11:42:23;2.90;;;2.35;;
70588;SDS011;58152;49.202;18.744;2023-06-14T11:44:53;2.90;;;2.20;;
70588;SDS011;58152;49.202;18.744;2023-06-14T11:47:19;2.75;;;2.10;;
70588;SDS011;58152;49.202;18.744;2023-06-14T11:49:47;3.78;;;2.78;;
70588;SDS011;58152;49.202;18.744;2023-06-14T11:52:13;3.40;;;2.67;;
70588;SDS011;58152;49.202;18.744;2023-06-14T11:54:38;2.50;;;2.15;;
70588;SDS011;58152;49.202;18.744;2023-06-14T11:57:07;2.78;;;2.22;;
70588;SDS011;58152;49.202;18.744;2023-06-14T11:59:41;3.72;;;2.95;;
70588;SDS011;58152;49.202;18.744;2023-06-14T12:02:09;2.38;;;1.80;;
70588;SDS011;58152;49.202;18.744;2023-06-14T12:04:35;3.38;;;2.33;;
70588;SDS011;58152;49.202;18.744;2023-06-14T12:07:19;3.33;;;2.03;;
70588;SDS011;58152;49.202;18.744;2023-06-14T12:12:20;2.97;;;2.58;;
70588;SDS011;58152;49.202;18.744;2023-06-14T12:14:56;3.33;;;2.42;;
70588;SDS011;58152;49.202;18.744;2023-06-14T12:17:22;3.50;;;2.55;;
70588;SDS011;58152;49.202;18.744;2023-06-14T12:19:48;3.10;;;2.58;;
70588;SDS011;58152;49.202;18.744;2023-06-14T12:22:15;2.47;;;2.20;;
70588;SDS011;58152;49.202;18.744;2023-06-14T12:24:45;2.95;;;2.30;;
70588;SDS011;58152;49.202;18.744;2023-06-14T12:27:11;2.92;;;2.53;;
70588;SDS011;58152;49.202;18.744;2023-06-14T12:29:41;4.43;;;1.88;;
70588;SDS011;58152;49.202;18.744;2023-06-14T12:32:10;2.88;;;1.75;;
70588;SDS011;58152;49.202;18.744;2023-06-14T12:34:36;2.67;;;1.60;;
70588;SDS011;58152;49.202;18.744;2023-06-14T12:37:02;1.80;;;1.52;;
70588;SDS011;58152;49.202;18.744;2023-06-14T12:39:29;2.42;;;1.98;;
70588;SDS011;58152;49.202;18.744;2023-06-14T12:41:58;3.00;;;2.53;;
70588;SDS011;58152;49.202;18.744;2023-06-14T12:44:24;2.20;;;2.00;;
70588;SDS011;58152;49.202;18.744;2023-06-14T12:46:50;2.25;;;1.92;;
70588;SDS011;58152;49.202;18.744;2023-06-14T12:49:18;1.80;;;1.52;;
70588;SDS011;58152;49.202;18.744;2023-06-14T12:51:45;2.20;;;2.00;;
70588;SDS011;58152;49.202;18.744;2023-06-14T12:54:10;1.85;;;1.70;;
70588;SDS011;58152;49.202;18.744;2023-06-14T12:56:37;2.97;;;1.50;;
70588;SDS011;58152;49.202;18.744;2023-06-14T12:59:02;1.67;;;1.58;;
70588;SDS011;58152;49.202;18.744;2023-06-14T13:01:28;2.35;;;1.35;;
70588;SDS011;58152;49.202;18.744;2023-06-14T13:03:53;2.13;;;1.40;;
70588;SDS011;58152;49.202;18.744;2023-06-14T13:06:22;1.95;;;1.75;;
70588;SDS011;58152;49.202;18.744;2023-06-14T13:08:47;2.20;;;1.63;;
70588;SDS011;58152;49.202;18.744;2023-06-14T13:11:14;2.00;;;1.58;;
70588;SDS011;58152;49.202;18.744;2023-06-14T13:13:40;1.88;;;1.67;;
70588;SDS011;58152;49.202;18.744;2023-06-14T13:16:06;1.60;;;1.50;;
70588;SDS011;58152;49.202;18.744;2023-06-14T13:18:31;4.47;;;2.97;;
70588;SDS011;58152;49.202;18.744;2023-06-14T13:20:57;3.63;;;2.15;;
70588;SDS011;58152;49.202;18.744;2023-06-14T13:23:22;2.40;;;2.13;;
70588;SDS011;58152;49.202;18.744;2023-06-14T13:25:49;2.45;;;2.08;;
70588;SDS011;58152;49.202;18.744;2023-06-14T13:28:16;2.70;;;2.13;;
70588;SDS011;58152;49.202;18.744;2023-06-14T13:30:41;1.70;;;1.35;;
70588;SDS011;58152;49.202;18.744;2023-06-14T13:33:12;1.95;;;1.42;;
70588;SDS011;58152;49.202;18.744;2023-06-14T13:35:40;1.73;;;1.60;;
70588;SDS011;58152;49.202;18.744;2023-06-14T13:38:16;1.40;;;1.20;;
70588;SDS011;58152;49.202;18.744;2023-06-14T13:40:45;1.60;;;1.50;;
70588;SDS011;58152;49.202;18.744;2023-06-14T13:43:18;2.90;;;1.80;;
70588;SDS011;58152;49.202;18.744;2023-06-14T13:45:49;2.58;;;2.00;;
70588;SDS011;58152;49.202;18.744;2023-06-14T13:48:17;2.13;;;1.80;;
70588;SDS011;58152;49.202;18.744;2023-06-14T13:50:43;2.22;;;1.90;;
70588;SDS011;58152;49.202;18.744;2023-06-14T13:53:09;2.22;;;1.67;;
70588;SDS011;58152;49.202;18.744;2023-06-14T13:55:35;2.58;;;1.60;;
70588;SDS011;58152;49.202;18.744;2023-06-14T13:58:01;1.77;;;1.30;;
70588;SDS011;58152;49.202;18.744;2023-06-14T14:00:26;1.60;;;1.40;;
70588;SDS011;58152;49.202;18.744;2023-06-14T14:02:56;3.78;;;1.63;;
70588;SDS011;58152;49.202;18.744;2023-06-14T14:05:24;1.92;;;1.20;;
70588;SDS011;58152;49.202;18.744;2023-06-14T14:07:53;2.60;;;1.27;;
70588;SDS011;58152;49.202;18.744;2023-06-14T14:10:19;2.42;;;1.38;;
70588;SDS011;58152;49.202;18.744;2023-06-14T14:12:45;1.80;;;1.70;;
70588;SDS011;58152;49.202;18.744;2023-06-14T14:15:13;3.22;;;1.30;;
70588;SDS011;58152;49.202;18.744;2023-06-14T14:17:40;3.53;;;1.73;;
70588;SDS011;58152;49.202;18.744;2023-06-14T14:20:08;5.65;;;1.70;;
70588;SDS011;58152;49.202;18.744;2023-06-14T14:22:34;3.00;;;1.60;;
70588;SDS011;58152;49.202;18.744;2023-06-14T14:24:59;1.70;;;1.60;;
70588;SDS011;58152;49.202;18.744;2023-06-14T14:27:25;2.15;;;1.67;;
70588;SDS011;58152;49.202;18.744;2023-06-14T14:29:53;1.75;;;1.55;;
70588;SDS011;58152;49.202;18.744;2023-06-14T14:32:21;2.33;;;1.60;;
70588;SDS011;58152;49.202;18.744;2023-06-14T14:34:47;3.25;;;1.70;;
70588;SDS011;58152;49.202;18.744;2023-06-14T14:37:15;2.08;;;1.67;;
70588;SDS011;58152;49.202;18.744;2023-06-14T14:39:41;1.73;;;1.33;;
70588;SDS011;58152;49.202;18.744;2023-06-14T14:42:07;3.00;;;1.50;;
70588;SDS011;58152;49.202;18.744;2023-06-14T14:44:35;1.60;;;1.48;;
70588;SDS011;58152;49.202;18.744;2023-06-14T14:47:01;1.70;;;1.60;;
70588;SDS011;58152;49.202;18.744;2023-06-14T14:49:27;1.70;;;1.60;;
70588;SDS011;58152;49.202;18.744;2023-06-14T14:51:54;2.00;;;1.70;;
70588;SDS011;58152;49.202;18.744;2023-06-14T14:54:21;1.85;;;1.67;;
70588;SDS011;58152;49.202;18.744;2023-06-14T14:56:50;2.03;;;1.80;;
70588;SDS011;58152;49.202;18.744;2023-06-14T14:59:19;2.45;;;1.77;;
70588;SDS011;58152;49.202;18.744;2023-06-14T15:01:47;2.08;;;1.85;;
70588;SDS011;58152;49.202;18.744;2023-06-14T15:04:15;1.80;;;1.70;;
70588;SDS011;58152;49.202;18.744;2023-06-14T15:06:42;2.67;;;1.77;;